Dinnington, United Kingdom
Current Conditions -  °F | °C
As of 3:20 PM on Thursday 18 Dec 2014 (Local Time) from EGCN Reporting Station
Overcast Overcast  
Wind Chill: 14°   Ceiling: 2100
Heat Index: 14°   Visibility: 6mi
Dew Point: 11°   Wind: 17mph
Humidity: 82%   Direction: 220°SW
Pressure: 29.59"   Gusts: NA
Location:  53.37°N, 1.2°W
Report Text: EGCN 181520Z 22015KT 9999 BKN021 OVC026 14/11 Q1002
Loading
Personal Weather Stations






























Interactive Weather Map New forecast layout! Learn more

10-Day Weather Forecast

Advertisements
Track Severe Weather on mobile